Terminal Aerodrome Forecast
Issued by NWS Charleston, SC

Home | Current Version | Previous Version | Text Only | Print | Product List | Glossary On
Versions: 1 2 3 4 5 6 7 8 9 10 11 12 13
000
FTUS42 KCHS 050528
TAFSAV
TAF
KSAV 050528Z 0506/0606 VRB03KT P6SM MIFG SCT015
     FM051300 08010KT P6SM SCT025
     FM051700 10014G21KT P6SM FEW050
     FM060200 VRB04KT P6SM SCT020=

USA.gov is the U.S. government's official web portal to all federal, state and local government web resources and services.